createdAt,value
2019-04-22T00:02:26.475Z,88.20
2019-04-22T00:05:11.210Z,88.30
2019-04-22T00:08:00.423Z,88.30
2019-04-22T00:10:26.161Z,88.60
2019-04-22T00:13:01.292Z,88.90
2019-04-22T00:15:27.206Z,88.60
2019-04-22T00:18:07.483Z,87.30
2019-04-22T00:20:35.349Z,87.10
2019-04-22T00:23:05.142Z,87.10
2019-04-22T00:25:43.908Z,87.90
2019-04-22T00:28:08.555Z,88.20
2019-04-22T00:30:44.925Z,88.40
2019-04-22T00:33:18.687Z,89.00
2019-04-22T00:35:49.352Z,89.60
2019-04-22T00:38:23.822Z,89.30
2019-04-22T00:40:56.321Z,90.40
2019-04-22T00:43:24.411Z,90.90
2019-04-22T00:45:59.093Z,91.20
2019-04-22T00:48:30.537Z,91.20
2019-04-22T00:53:36.721Z,91.10
2019-04-22T01:01:14.310Z,91.00
2019-04-22T01:06:17.408Z,91.40
2019-04-22T01:08:53.720Z,91.20
2019-04-22T01:11:24.937Z,90.90
2019-04-22T01:13:49.526Z,91.20
2019-04-22T01:16:24.994Z,91.60
2019-04-22T01:18:53.834Z,91.60
2019-04-22T01:21:28.792Z,91.90
2019-04-22T01:23:59.461Z,92.10
2019-04-22T01:26:25.544Z,92.40
2019-04-22T01:28:59.628Z,92.40
2019-04-22T01:31:22.039Z,92.30
2019-04-22T01:34:05.462Z,92.10
2019-04-22T01:36:41.493Z,91.90
2019-04-22T01:39:18.090Z,91.60
2019-04-22T01:41:55.121Z,91.20
2019-04-22T01:46:50.725Z,91.70
2019-04-22T01:49:25.685Z,91.60
2019-04-22T01:51:58.747Z,91.50
2019-04-22T01:57:01.691Z,92.20
2019-04-22T01:59:19.781Z,91.60
2019-04-22T02:02:05.946Z,91.80
2019-04-22T02:04:39.758Z,91.70
2019-04-22T02:09:38.340Z,92.20
2019-04-22T02:14:39.498Z,91.20
2019-04-22T02:17:21.030Z,92.00
2019-04-22T02:19:45.631Z,92.00
2019-04-22T02:22:19.029Z,91.90
2019-04-22T02:24:47.073Z,91.60
2019-04-22T02:27:17.733Z,91.80
2019-04-22T02:29:50.368Z,92.10
2019-04-22T02:32:42.256Z,92.40
2019-04-22T02:37:23.444Z,92.20
2019-04-22T02:40:27.727Z,92.10
2019-04-22T02:44:56.131Z,91.00
2019-04-22T02:47:42.226Z,91.10
2019-04-22T02:50:08.807Z,92.00
2019-04-22T02:52:37.586Z,91.70
2019-04-22T02:57:42.576Z,92.10
2019-04-22T03:00:18.381Z,92.40
2019-04-22T03:07:42.459Z,92.40
2019-04-22T03:10:43.864Z,92.40
2019-04-22T03:12:48.966Z,91.80
2019-04-22T03:15:16.571Z,91.40
2019-04-22T03:17:49.477Z,91.90
2019-04-22T03:20:22.208Z,92.60
2019-04-22T03:22:55.397Z,92.60
2019-04-22T03:27:44.101Z,91.70
2019-04-22T03:30:50.712Z,92.20
2019-04-22T03:37:56.257Z,92.50
2019-04-22T03:43:09.217Z,92.50
2019-04-22T03:45:44.231Z,92.50
2019-04-22T03:48:23.968Z,92.40
2019-04-22T03:51:01.898Z,92.10
2019-04-22T03:53:15.429Z,92.20
2019-04-22T03:55:43.443Z,92.90
2019-04-22T03:58:28.609Z,92.30
2019-04-22T04:03:21.087Z,92.60
2019-04-22T04:05:52.525Z,93.00
2019-04-22T04:08:26.811Z,92.80
2019-04-22T04:10:53.076Z,92.90
2019-04-22T04:13:41.662Z,93.00
2019-04-22T04:15:46.631Z,92.50
2019-04-22T04:18:30.885Z,92.50
2019-04-22T04:21:14.536Z,92.70
2019-04-22T04:23:38.331Z,93.00
2019-04-22T04:26:02.357Z,92.30
2019-04-22T04:31:09.641Z,92.40
2019-04-22T04:33:38.149Z,92.50
2019-04-22T04:41:22.550Z,92.60
2019-04-22T04:43:50.522Z,92.50
2019-04-22T04:46:32.255Z,92.50
2019-04-22T04:51:33.662Z,91.80
2019-04-22T04:53:53.127Z,92.30
2019-04-22T04:56:26.965Z,92.80
2019-04-22T05:01:27.114Z,92.60
2019-04-22T05:03:57.307Z,92.30
2019-04-22T05:06:46.056Z,92.50
2019-04-22T05:09:14.781Z,92.30
2019-04-22T05:11:40.596Z,92.50
2019-04-22T05:14:05.540Z,92.50
2019-04-22T05:16:34.589Z,92.40
2019-04-22T05:18:57.188Z,92.50
2019-04-22T05:21:21.804Z,92.40
2019-04-22T05:24:05.515Z,92.20
2019-04-22T05:26:34.210Z,92.20
2019-04-22T05:29:05.491Z,91.90
2019-04-22T05:34:05.509Z,92.10
2019-04-22T05:36:34.487Z,91.50
2019-04-22T05:39:09.142Z,90.50
2019-04-22T05:41:36.294Z,90.00
2019-04-22T05:44:08.610Z,88.70
2019-04-22T05:46:35.873Z,85.30
2019-04-22T05:49:14.629Z,85.70
2019-04-22T05:51:43.641Z,84.30
2019-04-22T05:54:19.000Z,85.80
2019-04-22T05:56:39.533Z,81.70
2019-04-22T05:59:20.745Z,79.20
2019-04-22T06:04:14.719Z,81.50
2019-04-22T06:06:46.779Z,80.90
2019-04-22T06:09:24.854Z,80.20
2019-04-22T06:11:54.438Z,80.80
2019-04-22T06:14:24.839Z,79.20
2019-04-22T06:17:04.023Z,81.10
2019-04-22T06:19:31.286Z,79.40
2019-04-22T06:22:16.957Z,78.90
2019-04-22T06:24:39.521Z,77.60
2019-04-22T06:27:15.958Z,75.60
2019-04-22T06:29:38.266Z,76.70
2019-04-22T06:34:42.128Z,74.80
2019-04-22T06:37:17.485Z,74.90
2019-04-22T06:39:46.734Z,74.20
2019-04-22T06:42:21.797Z,74.10
2019-04-22T06:44:53.425Z,72.70
2019-04-22T06:47:38.534Z,72.80
2019-04-22T06:49:49.273Z,72.70
2019-04-22T06:54:54.908Z,72.70
2019-04-22T06:57:25.530Z,72.50
2019-04-22T07:00:02.465Z,72.20
2019-04-22T07:02:33.797Z,71.20
2019-04-22T07:05:02.200Z,71.80
2019-04-22T07:07:34.517Z,70.80
2019-04-22T07:10:11.680Z,71.10
2019-04-22T07:15:11.334Z,70.00
2019-04-22T07:20:04.022Z,66.80
2019-04-22T07:22:43.588Z,66.20
2019-04-22T07:25:10.301Z,66.90
2019-04-22T07:27:44.121Z,65.20
2019-04-22T07:30:18.865Z,64.70
2019-04-22T07:33:04.771Z,64.20
2019-04-22T07:35:26.456Z,61.90
2019-04-22T07:37:48.324Z,62.20
2019-04-22T07:40:17.255Z,60.40
2019-04-22T07:42:49.442Z,58.90
2019-04-22T07:45:25.066Z,59.70
2019-04-22T07:47:52.181Z,59.50
2019-04-22T07:50:39.312Z,58.00
2019-04-22T07:52:51.441Z,58.20
2019-04-22T07:55:27.347Z,58.50
2019-04-22T07:58:00.768Z,57.20
2019-04-22T08:00:29.719Z,54.70
2019-04-22T08:03:06.684Z,52.60
2019-04-22T08:05:45.971Z,52.30
2019-04-22T08:08:13.182Z,47.70
2019-04-22T08:10:43.094Z,45.40
2019-04-22T08:13:11.748Z,45.30
2019-04-22T08:15:47.054Z,45.20
2019-04-22T08:18:17.469Z,45.20
2019-04-22T08:20:47.179Z,45.50
2019-04-22T08:23:24.528Z,43.40
2019-04-22T08:26:05.548Z,44.40
2019-04-22T08:28:26.597Z,43.20
2019-04-22T08:33:29.473Z,43.60
2019-04-22T08:36:10.801Z,43.90
2019-04-22T08:38:41.525Z,42.20
2019-04-22T08:49:03.974Z,42.00
2019-04-22T08:56:37.596Z,42.10
2019-04-22T08:59:11.051Z,42.10
2019-04-22T09:01:35.954Z,43.00
2019-04-22T09:07:02.429Z,42.60
2019-04-22T09:14:16.632Z,42.50
2019-04-22T09:16:42.640Z,40.70
2019-04-22T09:19:28.554Z,41.90
2019-04-22T09:24:21.355Z,41.30
2019-04-22T09:26:49.188Z,40.60
2019-04-22T09:32:00.294Z,39.80
2019-04-22T09:34:30.395Z,39.90
2019-04-22T09:36:59.432Z,40.20
2019-04-22T09:39:30.317Z,40.70
2019-04-22T09:41:59.775Z,40.40
2019-04-22T09:44:34.760Z,39.20
2019-04-22T09:47:00.429Z,39.70
2019-04-22T09:49:42.935Z,38.70
2019-04-22T09:52:08.037Z,40.70
2019-04-22T09:57:10.229Z,39.40
2019-04-22T09:59:48.492Z,39.20
2019-04-22T10:04:39.890Z,39.40
2019-04-22T10:07:15.330Z,38.90
2019-04-22T10:09:59.731Z,38.10
2019-04-22T10:12:19.246Z,37.90
2019-04-22T10:14:49.455Z,39.20
2019-04-22T10:17:17.553Z,40.40
2019-04-22T10:19:51.504Z,40.20
2019-04-22T10:22:29.101Z,40.50
2019-04-22T10:24:53.580Z,39.20
2019-04-22T10:27:21.337Z,39.00
2019-04-22T10:32:25.211Z,40.60
2019-04-22T10:34:40.864Z,39.70
2019-04-22T10:37:11.266Z,39.30
2019-04-22T10:39:45.809Z,39.90
2019-04-22T10:42:11.232Z,39.60
2019-04-22T10:44:41.440Z,38.40
2019-04-22T10:47:11.878Z,37.70
2019-04-22T10:49:42.607Z,38.40
2019-04-22T10:52:12.943Z,38.20
2019-04-22T10:54:43.258Z,37.70
2019-04-22T10:57:13.968Z,37.40
2019-04-22T10:59:44.906Z,36.70
2019-04-22T11:02:14.554Z,37.50
2019-04-22T11:04:44.181Z,37.00
2019-04-22T11:07:15.428Z,38.00
2019-04-22T11:09:51.698Z,37.90
2019-04-22T11:12:20.689Z,38.30
2019-04-22T11:14:48.069Z,38.10
2019-04-22T11:17:19.541Z,37.10
2019-04-22T11:19:49.946Z,38.30
2019-04-22T11:22:24.500Z,38.10
2019-04-22T11:24:51.152Z,38.20
2019-04-22T11:27:21.183Z,37.20
2019-04-22T11:29:50.873Z,38.40
2019-04-22T11:32:20.611Z,38.40
2019-04-22T11:34:51.209Z,38.60
2019-04-22T11:37:21.061Z,39.20
2019-04-22T11:40:04.341Z,38.60
2019-04-22T11:42:23.871Z,37.90
2019-04-22T11:44:55.130Z,37.30
2019-04-22T11:47:25.539Z,37.60
2019-04-22T11:49:55.393Z,37.40
2019-04-22T11:52:25.131Z,38.40
2019-04-22T11:54:56.844Z,38.00
2019-04-22T11:57:26.852Z,38.30
2019-04-22T11:59:56.639Z,37.40
2019-04-22T12:02:29.192Z,36.90
2019-04-22T12:04:58.879Z,38.10
2019-04-22T12:07:32.698Z,37.00
2019-04-22T12:10:13.264Z,36.60
2019-04-22T12:12:32.031Z,36.00
2019-04-22T12:15:01.731Z,35.60
2019-04-22T12:17:32.029Z,35.30
2019-04-22T12:20:04.767Z,36.40
2019-04-22T12:22:33.910Z,36.30
2019-04-22T12:25:08.182Z,35.20
2019-04-22T12:27:41.203Z,35.70
2019-04-22T12:30:19.573Z,35.70
2019-04-22T12:32:50.494Z,36.10
2019-04-22T12:35:21.130Z,36.00
2019-04-22T12:37:55.534Z,36.50
2019-04-22T12:40:33.825Z,36.40
2019-04-22T12:42:55.481Z,36.50
2019-04-22T12:45:26.674Z,37.30
2019-04-22T12:47:56.269Z,38.00
2019-04-22T12:50:31.539Z,37.00
2019-04-22T12:53:04.858Z,37.00
2019-04-22T12:55:30.326Z,38.30
2019-04-22T12:58:01.311Z,36.70
2019-04-22T13:00:32.279Z,37.40
2019-04-22T13:03:03.159Z,37.70
2019-04-22T13:05:33.398Z,37.70
2019-04-22T13:08:03.390Z,36.70
2019-04-22T13:10:41.618Z,36.50
2019-04-22T13:13:05.090Z,36.50
2019-04-22T13:15:35.156Z,37.10
2019-04-22T13:18:13.564Z,37.80
2019-04-22T13:20:36.561Z,37.80
2019-04-22T13:23:07.562Z,37.80
2019-04-22T13:25:38.785Z,37.40
2019-04-22T13:28:09.369Z,36.50
2019-04-22T13:30:40.815Z,36.10
2019-04-22T13:33:10.841Z,37.00
2019-04-22T13:35:41.583Z,36.60
2019-04-22T13:38:11.320Z,36.60
2019-04-22T13:40:57.834Z,37.10
2019-04-22T13:43:16.771Z,38.20
2019-04-22T13:45:47.682Z,37.50
2019-04-22T13:48:38.669Z,36.70
2019-04-22T13:51:25.726Z,37.00
2019-04-22T13:54:24.326Z,35.90
2019-04-22T13:56:15.378Z,35.30
2019-04-22T13:58:38.237Z,36.10
2019-04-22T14:00:58.456Z,35.70
2019-04-22T14:03:46.895Z,36.00
2019-04-22T14:06:16.725Z,36.00
2019-04-22T14:08:47.182Z,36.40
2019-04-22T14:11:30.063Z,36.60
2019-04-22T14:13:48.324Z,36.90
2019-04-22T14:16:19.615Z,37.10
2019-04-22T14:18:49.770Z,36.50
2019-04-22T14:21:20.850Z,36.70
2019-04-22T14:23:50.978Z,36.30
2019-04-22T14:26:20.751Z,35.90
2019-04-22T14:28:50.380Z,37.00
2019-04-22T14:31:20.381Z,37.20
2019-04-22T14:33:54.860Z,37.20
2019-04-22T14:36:21.633Z,36.60
2019-04-22T14:38:52.305Z,36.40
2019-04-22T14:41:40.330Z,37.30
2019-04-22T14:45:05.379Z,37.10
2019-04-22T14:46:59.704Z,36.60
2019-04-22T14:49:25.262Z,37.90
2019-04-22T14:51:49.808Z,37.10
2019-04-22T14:54:13.943Z,37.00
2019-04-22T14:56:30.572Z,37.20
2019-04-22T14:59:00.818Z,36.70
2019-04-22T15:01:30.811Z,36.70
2019-04-22T15:04:00.769Z,36.10
2019-04-22T15:06:31.816Z,37.10
2019-04-22T15:09:01.896Z,37.10
2019-04-22T15:11:43.859Z,36.90
2019-04-22T15:14:03.318Z,37.30
2019-04-22T15:16:36.249Z,37.70
2019-04-22T15:19:17.902Z,37.10
2019-04-22T15:21:47.611Z,36.00
2019-04-22T15:24:25.134Z,36.80
2019-04-22T15:26:58.560Z,36.20
2019-04-22T15:29:29.663Z,36.20
2019-04-22T15:32:00.014Z,36.90
2019-04-22T15:34:30.550Z,36.10
2019-04-22T15:37:00.451Z,36.80
2019-04-22T15:39:31.360Z,36.70
2019-04-22T15:42:11.638Z,37.50
2019-04-22T15:44:33.880Z,37.30
2019-04-22T15:47:05.031Z,36.30
2019-04-22T15:49:35.751Z,36.90
2019-04-22T15:52:07.779Z,36.70
2019-04-22T15:54:37.695Z,36.60
2019-04-22T15:57:08.749Z,36.90
2019-04-22T15:59:55.122Z,36.70
2019-04-22T16:02:10.490Z,37.10
2019-04-22T16:04:41.379Z,37.50
2019-04-22T16:07:11.012Z,37.10
2019-04-22T16:09:41.646Z,37.30
2019-04-22T16:12:19.124Z,37.60
2019-04-22T16:14:47.767Z,36.30
2019-04-22T16:17:14.790Z,36.80
2019-04-22T16:19:45.169Z,36.50
2019-04-22T16:22:19.047Z,36.30
2019-04-22T16:24:52.179Z,36.40
2019-04-22T16:27:24.676Z,37.10
2019-04-22T16:29:55.120Z,36.30
2019-04-22T16:32:27.613Z,36.60
2019-04-22T16:34:58.720Z,36.90
2019-04-22T16:37:28.700Z,38.00
2019-04-22T16:39:58.939Z,38.00
2019-04-22T16:42:37.721Z,37.70
2019-04-22T16:45:01.697Z,37.20
2019-04-22T16:47:31.589Z,37.10
2019-04-22T16:50:01.833Z,37.30
2019-04-22T16:52:32.192Z,37.30
2019-04-22T16:55:03.436Z,36.40
2019-04-22T16:57:33.728Z,37.40
2019-04-22T17:00:06.799Z,37.50
2019-04-22T17:02:41.223Z,37.60
2019-04-22T17:05:15.863Z,37.30
2019-04-22T17:07:45.722Z,37.20
2019-04-22T17:10:17.651Z,36.90
2019-04-22T17:12:57.298Z,36.70
2019-04-22T17:15:20.709Z,36.90
2019-04-22T17:17:51.598Z,37.30
2019-04-22T17:20:22.960Z,37.50
2019-04-22T17:22:53.488Z,38.20
2019-04-22T17:25:24.605Z,38.10
2019-04-22T17:27:55.229Z,37.80
2019-04-22T17:30:26.434Z,38.00
2019-04-22T17:32:56.661Z,38.60
2019-04-22T17:35:28.257Z,38.90
2019-04-22T17:38:09.238Z,39.40
2019-04-22T17:40:49.072Z,39.40
2019-04-22T17:43:36.042Z,40.50
2019-04-22T17:46:04.473Z,40.20
2019-04-22T17:48:42.019Z,40.40
2019-04-22T17:51:25.699Z,40.50
2019-04-22T17:53:53.467Z,40.40
2019-04-22T17:56:21.633Z,40.70
2019-04-22T17:58:51.227Z,40.60
2019-04-22T18:01:28.055Z,40.60
2019-04-22T18:03:43.610Z,41.10
2019-04-22T18:06:17.559Z,41.20
2019-04-22T18:08:54.909Z,41.20
2019-04-22T18:11:33.459Z,41.50
2019-04-22T18:14:16.165Z,41.60
2019-04-22T18:16:37.274Z,43.40
2019-04-22T18:19:07.505Z,42.00
2019-04-22T18:21:30.346Z,42.40
2019-04-22T18:23:55.358Z,43.70
2019-04-22T18:26:38.947Z,43.40
2019-04-22T18:29:09.974Z,42.60
2019-04-22T18:31:32.714Z,42.90
2019-04-22T18:34:08.213Z,43.40
2019-04-22T18:36:40.395Z,44.00
2019-04-22T18:39:37.021Z,44.10
2019-04-22T18:41:47.123Z,44.10
2019-04-22T18:44:22.626Z,43.40
2019-04-22T18:46:47.815Z,43.90
2019-04-22T18:49:17.283Z,45.60
2019-04-22T18:51:51.367Z,45.70
2019-04-22T18:54:36.206Z,44.80
2019-04-22T18:57:08.348Z,45.20
2019-04-22T18:59:26.275Z,45.10
2019-04-22T19:01:52.426Z,47.20
2019-04-22T19:04:27.413Z,46.10
2019-04-22T19:07:19.881Z,46.40
2019-04-22T19:09:56.216Z,47.30
2019-04-22T19:15:01.777Z,47.20
2019-04-22T19:17:32.770Z,47.30
2019-04-22T19:19:56.112Z,48.00
2019-04-22T19:22:26.601Z,47.30
2019-04-22T19:24:52.951Z,46.90
2019-04-22T19:27:26.858Z,48.00
2019-04-22T19:30:01.484Z,47.60
2019-04-22T19:32:33.579Z,48.50
2019-04-22T19:34:56.932Z,50.30
2019-04-22T19:37:28.709Z,49.50
2019-04-22T19:40:10.179Z,51.20
2019-04-22T19:42:38.729Z,52.00
2019-04-22T19:45:09.052Z,52.20
2019-04-22T19:47:58.217Z,51.40
2019-04-22T19:50:12.916Z,50.50
2019-04-22T19:52:40.244Z,50.80
2019-04-22T19:55:15.713Z,51.70
2019-04-22T19:57:41.942Z,54.20
2019-04-22T20:00:11.598Z,53.50
2019-04-22T20:03:14.848Z,54.80
2019-04-22T20:05:37.158Z,56.80
2019-04-22T20:08:11.056Z,55.90
2019-04-22T20:10:40.228Z,56.10
2019-04-22T20:13:15.055Z,56.00
2019-04-22T20:15:37.235Z,57.10
2019-04-22T20:18:35.712Z,60.00
2019-04-22T20:20:46.571Z,60.70
2019-04-22T20:23:14.270Z,58.80
2019-04-22T20:25:46.361Z,56.90
2019-04-22T20:28:19.955Z,62.90
2019-04-22T20:30:50.652Z,64.00
2019-04-22T20:33:29.216Z,67.70
2019-04-22T20:36:01.471Z,68.00
2019-04-22T20:38:28.167Z,72.50
2019-04-22T20:40:55.036Z,71.40
2019-04-22T20:43:38.613Z,73.00
2019-04-22T20:46:05.885Z,68.70
2019-04-22T20:48:37.621Z,71.80
2019-04-22T20:51:04.287Z,75.00
2019-04-22T20:53:37.483Z,77.70
2019-04-22T20:56:04.303Z,77.60
2019-04-22T20:58:38.808Z,79.10
2019-04-22T21:00:59.318Z,78.50
2019-04-22T21:03:31.951Z,79.60
2019-04-22T21:06:08.720Z,79.90
2019-04-22T21:08:42.066Z,79.30
2019-04-22T21:11:12.713Z,80.50
2019-04-22T21:13:42.076Z,81.40
2019-04-22T21:16:21.640Z,80.00
2019-04-22T21:18:44.667Z,78.60
2019-04-22T21:21:19.598Z,80.20
2019-04-22T21:23:42.420Z,82.60
2019-04-22T21:26:20.723Z,82.20
2019-04-22T21:28:53.476Z,82.50
2019-04-22T21:31:29.639Z,82.60
2019-04-22T21:34:04.160Z,85.20
2019-04-22T21:36:36.664Z,83.80
2019-04-22T21:38:59.122Z,83.50
2019-04-22T21:41:30.404Z,86.00
2019-04-22T21:43:58.443Z,85.40
2019-04-22T21:46:33.486Z,84.50
2019-04-22T21:49:06.053Z,85.80
2019-04-22T21:56:57.261Z,87.40
2019-04-22T21:59:15.545Z,87.60
2019-04-22T22:01:52.888Z,87.30
2019-04-22T22:04:21.974Z,86.70
2019-04-22T22:06:42.477Z,88.20
2019-04-22T22:09:25.169Z,88.50
2019-04-22T22:11:55.443Z,88.70
2019-04-22T22:14:26.199Z,89.50
2019-04-22T22:16:53.050Z,87.80
2019-04-22T22:19:28.356Z,87.80
2019-04-22T22:22:05.994Z,87.80
2019-04-22T22:24:41.762Z,87.60
2019-04-22T22:27:06.812Z,87.70
2019-04-22T22:29:49.353Z,85.20
2019-04-22T22:32:13.299Z,86.70
2019-04-22T22:34:43.154Z,87.20
2019-04-22T22:37:03.634Z,87.10
2019-04-22T22:39:35.390Z,88.30
2019-04-22T22:41:54.127Z,87.50
2019-04-22T22:44:30.245Z,87.60
2019-04-22T22:47:16.733Z,88.80
2019-04-22T22:49:50.357Z,88.20
2019-04-22T22:54:53.858Z,88.90
2019-04-22T22:57:29.053Z,89.40
2019-04-22T22:59:51.286Z,89.00
2019-04-22T23:02:27.125Z,90.20
2019-04-22T23:04:57.915Z,90.60
2019-04-22T23:07:28.929Z,90.60
2019-04-22T23:10:04.633Z,90.80
2019-04-22T23:12:44.102Z,90.90
2019-04-22T23:14:59.039Z,91.00
2019-04-22T23:17:19.920Z,91.10
2019-04-22T23:19:49.738Z,90.90
2019-04-22T23:22:25.236Z,90.70
2019-04-22T23:25:07.721Z,91.10
2019-04-22T23:27:46.561Z,90.50
2019-04-22T23:30:25.201Z,90.60
2019-04-22T23:33:06.314Z,90.40
2019-04-22T23:35:36.737Z,90.20
2019-04-22T23:38:06.313Z,90.30
2019-04-22T23:40:45.653Z,90.70
2019-04-22T23:43:22.231Z,90.40
2019-04-22T23:45:53.304Z,90.40
2019-04-22T23:48:17.069Z,90.40
2019-04-22T23:50:50.955Z,90.40
2019-04-22T23:53:45.091Z,90.80
2019-04-22T23:56:03.159Z,90.80
2019-04-22T23:58:47.597Z,90.50
